createdAt,value
2016-09-01T00:00:08.585Z,20.33
2016-09-01T00:01:07.999Z,20.25
2016-09-01T00:02:07.970Z,20.25
2016-09-01T00:03:07.234Z,20.23
2016-09-01T00:04:07.231Z,20.25
2016-09-01T00:05:07.243Z,20.28
2016-09-01T00:06:07.928Z,20.26
2016-09-01T00:07:06.549Z,20.18
2016-09-01T00:08:07.891Z,20.16
2016-09-01T00:09:07.164Z,20.13
2016-09-01T00:10:07.880Z,20.18
2016-09-01T00:11:07.866Z,20.11
2016-09-01T00:12:07.862Z,20.11
2016-09-01T00:13:07.831Z,20.08
2016-09-01T00:14:07.822Z,20.18
2016-09-01T00:15:07.811Z,20.14
2016-09-01T00:16:07.798Z,20.08
2016-09-01T00:17:06.432Z,20.11
2016-09-01T00:18:07.782Z,20.07
2016-09-01T00:19:07.052Z,20.07
2016-09-01T00:20:07.748Z,20.06
2016-09-01T00:21:07.739Z,20.04
2016-09-01T00:22:07.722Z,20.03
2016-09-01T00:23:07.711Z,20.06
2016-09-01T00:24:06.266Z,20.08
2016-09-01T00:25:07.682Z,20.07
2016-09-01T00:26:07.671Z,20.16
2016-09-01T00:27:06.943Z,20.08
2016-09-01T00:28:07.655Z,20.1
2016-09-01T00:29:07.639Z,19.96
2016-09-01T00:30:08.837Z,19.93
2016-09-01T00:31:07.610Z,19.99
2016-09-01T00:32:07.600Z,19.93
2016-09-01T00:33:06.880Z,19.98
2016-09-01T00:34:06.151Z,20.08
2016-09-01T00:35:07.969Z,20.06
2016-09-01T00:36:07.578Z,20.16
2016-09-01T00:37:06.895Z,20.13
2016-09-01T00:38:07.537Z,20.22
2016-09-01T00:39:07.516Z,20.16
2016-09-01T00:40:06.079Z,20.22
2016-09-01T00:41:07.563Z,20.32
2016-09-01T00:42:07.475Z,20.41
2016-09-01T00:43:07.479Z,20.33
2016-09-01T00:44:07.479Z,20.2
2016-09-01T00:45:06.737Z,20.2
2016-09-01T00:46:07.443Z,20.23
2016-09-01T00:47:06.697Z,20.26
2016-09-01T00:48:07.411Z,20.28
2016-09-01T00:49:07.395Z,20.23
2016-09-01T00:50:07.399Z,20.25
2016-09-01T00:51:07.371Z,20.33
2016-09-01T00:52:06.646Z,20.33
2016-09-01T00:53:07.342Z,20.33
2016-09-01T00:54:06.611Z,20.31
2016-09-01T00:55:07.312Z,20.47
2016-09-01T00:56:06.593Z,20.43
2016-09-01T00:57:06.591Z,20.31
2016-09-01T00:58:07.333Z,20.26
2016-09-01T00:59:07.262Z,20.23
2016-09-01T01:00:06.587Z,20.29
2016-09-01T01:01:07.241Z,20.4
2016-09-01T01:02:07.229Z,20.36
2016-09-01T01:03:07.223Z,20.36
2016-09-01T01:04:06.491Z,20.25
2016-09-01T01:05:07.703Z,20.26
2016-09-01T01:06:06.461Z,20.33
2016-09-01T01:07:07.174Z,20.32
2016-09-01T01:08:07.175Z,20.2
2016-09-01T01:09:06.435Z,20.22
2016-09-01T01:10:06.522Z,20.04
2016-09-01T01:11:07.112Z,20.06
2016-09-01T01:12:07.096Z,20.18
2016-09-01T01:13:06.381Z,20.16
2016-09-01T01:14:07.092Z,20.07
2016-09-01T01:15:06.351Z,19.85
2016-09-01T01:16:06.341Z,19.86
2016-09-01T01:17:07.066Z,19.8
2016-09-01T01:18:07.036Z,19.92
2016-09-01T01:19:06.303Z,19.96
2016-09-01T01:20:06.999Z,19.95
2016-09-01T01:21:06.999Z,19.92
2016-09-01T01:22:07.005Z,19.83
2016-09-01T01:23:06.956Z,19.86
2016-09-01T01:24:06.952Z,19.76
2016-09-01T01:25:06.943Z,19.71
2016-09-01T01:26:06.213Z,19.67
2016-09-01T01:27:06.924Z,19.67
2016-09-01T01:28:06.909Z,19.69
2016-09-01T01:29:06.181Z,19.74
2016-09-01T01:30:06.171Z,19.78
2016-09-01T01:31:06.864Z,19.71
2016-09-01T01:32:06.866Z,19.67
2016-09-01T01:33:06.842Z,19.61
2016-09-01T01:34:06.829Z,19.67
2016-09-01T01:35:06.117Z,19.59
2016-09-01T01:36:06.101Z,19.71
2016-09-01T01:37:06.789Z,19.58
2016-09-01T01:38:06.066Z,19.31
2016-09-01T01:39:06.841Z,19.38
2016-09-01T01:40:07.090Z,19.28
2016-09-01T01:41:06.032Z,19.22
2016-09-01T01:42:06.735Z,19.18
2016-09-01T01:43:06.728Z,19.23
2016-09-01T01:44:06.704Z,19.22
2016-09-01T01:45:06.709Z,19.33
2016-09-01T01:46:06.678Z,19.07
2016-09-01T01:47:06.669Z,18.87
2016-09-01T01:48:06.680Z,19.02
2016-09-01T01:49:06.718Z,19.15
2016-09-01T01:50:06.968Z,19.18
2016-09-01T01:51:06.672Z,19.21
2016-09-01T01:52:06.609Z,19.22
2016-09-01T01:53:06.614Z,19.12
2016-09-01T01:54:06.573Z,19.14
2016-09-01T01:55:06.580Z,19.19
2016-09-01T01:56:06.545Z,19.28
2016-09-01T01:57:06.568Z,19.22
2016-09-01T01:58:06.518Z,19.23
2016-09-01T01:59:05.802Z,19.26
2016-09-01T02:00:07.121Z,19.21
2016-09-01T02:01:06.547Z,19.21
2016-09-01T02:02:06.480Z,19.22
2016-09-01T02:03:06.460Z,19.18
2016-09-01T02:04:06.435Z,19.21
2016-09-01T02:05:06.505Z,19.26
2016-09-01T02:06:05.710Z,19.3
2016-09-01T02:07:06.404Z,19.43
2016-09-01T02:08:05.683Z,19.23
2016-09-01T02:09:05.677Z,19.43
2016-09-01T02:10:06.377Z,19.41
2016-09-01T02:11:06.405Z,19.38
2016-09-01T02:12:06.340Z,19.43
2016-09-01T02:13:06.349Z,19.36
2016-09-01T02:14:06.311Z,19.26
2016-09-01T02:15:05.608Z,19.36
2016-09-01T02:16:06.285Z,19.36
2016-09-01T02:17:06.277Z,19.38
2016-09-01T02:18:06.261Z,19.44
2016-09-01T02:19:06.268Z,19.46
2016-09-01T02:20:06.249Z,19.44
2016-09-01T02:21:06.456Z,19.49
2016-09-01T02:22:06.205Z,19.53
2016-09-01T02:23:06.194Z,19.49
2016-09-01T02:24:06.195Z,19.63
2016-09-01T02:25:05.458Z,19.67
2016-09-01T02:26:05.518Z,19.69
2016-09-01T02:27:06.165Z,19.66
2016-09-01T02:28:06.151Z,19.73
2016-09-01T02:29:06.125Z,19.73
2016-09-01T02:30:06.202Z,19.62
2016-09-01T02:31:05.380Z,19.67
2016-09-01T02:32:05.373Z,19.7
2016-09-01T02:33:05.357Z,19.69
2016-09-01T02:34:06.063Z,19.76
2016-09-01T02:35:06.045Z,19.67
2016-09-01T02:36:06.050Z,19.74
2016-09-01T02:37:06.036Z,19.77
2016-09-01T02:38:05.296Z,19.77
2016-09-01T02:39:05.996Z,19.73
2016-09-01T02:40:05.297Z,19.73
2016-09-01T02:41:05.977Z,19.67
2016-09-01T02:42:05.958Z,19.66
2016-09-01T02:43:05.958Z,19.66
2016-09-01T02:44:05.951Z,19.71
2016-09-01T02:45:05.920Z,19.56
2016-09-01T02:46:05.194Z,19.55
2016-09-01T02:47:05.178Z,19.49
2016-09-01T02:48:05.883Z,19.56
2016-09-01T02:49:05.854Z,19.41
2016-09-01T02:50:05.869Z,19.48
2016-09-01T02:51:05.841Z,19.41
2016-09-01T02:52:05.850Z,19.41
2016-09-01T02:53:05.830Z,19.31
2016-09-01T02:54:05.826Z,19.34
2016-09-01T02:55:05.801Z,19.26
2016-09-01T02:56:05.061Z,19.18
2016-09-01T02:57:05.775Z,19.22
2016-09-01T02:58:05.769Z,19.31
2016-09-01T02:59:05.027Z,19.33
2016-09-01T03:00:05.019Z,19.28
2016-09-01T03:01:04.999Z,19.26
2016-09-01T03:02:05.769Z,19.21
2016-09-01T03:03:05.705Z,19.19
2016-09-01T03:04:05.671Z,19.22
2016-09-01T03:05:05.672Z,19.18
2016-09-01T03:06:05.655Z,19.22
2016-09-01T03:07:05.648Z,19.22
2016-09-01T03:08:04.918Z,19.22
2016-09-01T03:09:05.617Z,19.18
2016-09-01T03:10:05.607Z,19.21
2016-09-01T03:11:05.575Z,19.21
2016-09-01T03:12:05.634Z,19.19
2016-09-01T03:13:04.841Z,19.19
2016-09-01T03:14:05.586Z,19.12
2016-09-01T03:15:04.811Z,19.18
2016-09-01T03:16:05.561Z,19.08
2016-09-01T03:17:05.500Z,19.06
2016-09-01T03:18:05.516Z,19.06
2016-09-01T03:19:05.475Z,19.08
2016-09-01T03:20:05.505Z,19.11
2016-09-01T03:21:04.737Z,19.15
2016-09-01T03:22:05.448Z,19.18
2016-09-01T03:23:05.436Z,19.19
2016-09-01T03:24:05.479Z,19.14
2016-09-01T03:25:04.691Z,19.06
2016-09-01T03:26:05.404Z,19.07
2016-09-01T03:27:03.946Z,19.02
2016-09-01T03:28:05.358Z,19
2016-09-01T03:29:05.357Z,18.92
2016-09-01T03:30:05.647Z,18.93
2016-09-01T03:31:05.318Z,18.95
2016-09-01T03:32:04.606Z,18.95
2016-09-01T03:33:04.590Z,18.9
2016-09-01T03:34:04.571Z,18.92
2016-09-01T03:35:04.557Z,18.92
2016-09-01T03:36:05.263Z,18.97
2016-09-01T03:37:04.609Z,18.95
2016-09-01T03:38:05.293Z,18.84
2016-09-01T03:39:05.224Z,18.96
2016-09-01T03:40:04.514Z,18.92
2016-09-01T03:41:05.198Z,18.95
2016-09-01T03:42:05.168Z,18.97
2016-09-01T03:43:05.188Z,18.87
2016-09-01T03:44:05.230Z,18.87
2016-09-01T03:45:05.123Z,18.84
2016-09-01T03:46:03.781Z,18.85
2016-09-01T03:47:05.105Z,18.82
2016-09-01T03:48:05.170Z,18.77
2016-09-01T03:49:05.088Z,18.81
2016-09-01T03:50:05.108Z,18.78
2016-09-01T03:51:05.068Z,18.8
2016-09-01T03:52:05.061Z,18.8
2016-09-01T03:53:05.034Z,18.8
2016-09-01T03:54:05.061Z,18.77
2016-09-01T03:55:04.342Z,18.87
2016-09-01T03:56:05.010Z,18.77
2016-09-01T03:57:04.270Z,18.77
2016-09-01T03:58:04.966Z,18.73
2016-09-01T03:59:04.951Z,18.74
2016-09-01T04:00:05.574Z,18.74
2016-09-01T04:01:04.947Z,18.74
2016-09-01T04:02:03.491Z,18.74
2016-09-01T04:03:04.903Z,18.65
2016-09-01T04:04:04.249Z,18.62
2016-09-01T04:05:04.862Z,18.69
2016-09-01T04:06:04.854Z,18.7
2016-09-01T04:07:04.130Z,18.75
2016-09-01T04:08:04.110Z,18.75
2016-09-01T04:09:04.839Z,18.73
2016-09-01T04:10:04.829Z,18.69
2016-09-01T04:11:04.797Z,18.74
2016-09-01T04:12:04.816Z,18.75
2016-09-01T04:13:04.776Z,18.73
2016-09-01T04:14:04.750Z,18.8
2016-09-01T04:15:04.782Z,18.7
2016-09-01T04:16:04.731Z,18.77
2016-09-01T04:17:04.717Z,18.78
2016-09-01T04:18:04.696Z,18.78
2016-09-01T04:19:04.741Z,18.8
2016-09-01T04:20:04.689Z,18.8
2016-09-01T04:21:04.715Z,18.73
2016-09-01T04:22:04.672Z,18.75
2016-09-01T04:23:03.975Z,18.77
2016-09-01T04:24:03.901Z,18.74
2016-09-01T04:25:04.352Z,18.8
2016-09-01T04:26:03.875Z,18.78
2016-09-01T04:27:04.584Z,18.75
2016-09-01T04:28:04.562Z,18.7
2016-09-01T04:29:04.608Z,18.77
2016-09-01T04:30:04.540Z,18.69
2016-09-01T04:31:04.565Z,18.69
2016-09-01T04:32:04.510Z,18.75
2016-09-01T04:33:04.534Z,18.73
2016-09-01T04:34:04.501Z,18.73
2016-09-01T04:35:04.486Z,18.62
2016-09-01T04:36:04.467Z,18.7
2016-09-01T04:37:04.471Z,18.63
2016-09-01T04:38:04.448Z,18.73
2016-09-01T04:39:04.432Z,18.73
2016-09-01T04:40:04.542Z,18.67
2016-09-01T04:41:04.453Z,18.69
2016-09-01T04:42:04.390Z,18.6
2016-09-01T04:43:04.431Z,18.66
2016-09-01T04:44:04.359Z,18.67
2016-09-01T04:45:04.358Z,18.65
2016-09-01T04:46:03.616Z,18.66
2016-09-01T04:47:04.306Z,18.63
2016-09-01T04:48:04.309Z,18.67
2016-09-01T04:49:04.291Z,18.67
2016-09-01T04:50:04.276Z,18.65
2016-09-01T04:51:04.255Z,18.65
2016-09-01T04:52:04.247Z,18.6
2016-09-01T04:53:03.520Z,18.66
2016-09-01T04:54:04.224Z,18.67
2016-09-01T04:55:04.197Z,18.52
2016-09-01T04:56:03.481Z,18.48
2016-09-01T04:57:04.185Z,18.44
2016-09-01T04:58:04.163Z,18.45
2016-09-01T04:59:03.437Z,18.4
2016-09-01T05:00:03.996Z,18.48
2016-09-01T05:01:03.416Z,18.37
2016-09-01T05:02:04.116Z,18.35
2016-09-01T05:03:04.101Z,18.2
2016-09-01T05:04:03.372Z,18.15
2016-09-01T05:05:02.691Z,18.26
2016-09-01T05:06:04.068Z,18.4
2016-09-01T05:07:04.072Z,18.38
2016-09-01T05:08:03.340Z,18.38
2016-09-01T05:09:04.042Z,18.4
2016-09-01T05:10:03.280Z,18.45
2016-09-01T05:11:04.016Z,18.42
2016-09-01T05:12:03.267Z,18.47
2016-09-01T05:13:03.262Z,18.48
2016-09-01T05:14:03.958Z,18.38
2016-09-01T05:15:03.324Z,18.35
2016-09-01T05:16:03.932Z,18.42
2016-09-01T05:17:03.191Z,18.41
2016-09-01T05:18:03.180Z,18.4
2016-09-01T05:19:03.883Z,18.52
2016-09-01T05:20:03.892Z,18.56
2016-09-01T05:21:03.138Z,18.51
2016-09-01T05:22:03.122Z,18.51
2016-09-01T05:23:03.120Z,18.52
2016-09-01T05:24:03.101Z,18.58
2016-09-01T05:25:03.098Z,18.56
2016-09-01T05:26:03.811Z,18.52
2016-09-01T05:27:03.776Z,18.52
2016-09-01T05:28:03.759Z,18.55
2016-09-01T05:29:03.746Z,18.51
2016-09-01T05:30:03.021Z,18.66
2016-09-01T05:31:03.997Z,18.67
2016-09-01T05:32:03.704Z,18.63
2016-09-01T05:33:03.684Z,18.77
2016-09-01T05:34:03.688Z,18.74
2016-09-01T05:35:02.962Z,18.63
2016-09-01T05:36:03.010Z,18.75
2016-09-01T05:37:03.646Z,18.78
2016-09-01T05:38:03.651Z,18.8
2016-09-01T05:39:03.631Z,18.69
2016-09-01T05:40:02.884Z,18.63
2016-09-01T05:41:03.606Z,18.7
2016-09-01T05:42:03.586Z,18.82
2016-09-01T05:43:03.555Z,18.88
2016-09-01T05:44:02.846Z,18.93
2016-09-01T05:45:02.890Z,18.88
2016-09-01T05:46:02.811Z,18.88
2016-09-01T05:47:03.500Z,18.77
2016-09-01T05:48:03.501Z,18.93
2016-09-01T05:49:03.491Z,18.92
2016-09-01T05:50:03.469Z,18.93
2016-09-01T05:51:02.096Z,18.92
2016-09-01T05:52:03.438Z,18.95
2016-09-01T05:53:02.720Z,19.14
2016-09-01T05:54:02.711Z,19.11
2016-09-01T05:55:03.411Z,19.06
2016-09-01T05:56:03.440Z,19.12
2016-09-01T05:57:02.739Z,19.23
2016-09-01T05:58:03.399Z,19.3
2016-09-01T05:59:03.371Z,18.93
2016-09-01T06:00:03.041Z,18.75
2016-09-01T06:01:02.614Z,18.82
2016-09-01T06:02:01.869Z,18.93
2016-09-01T06:03:02.573Z,19.07
2016-09-01T06:04:03.288Z,18.95
2016-09-01T06:05:03.275Z,18.93
2016-09-01T06:06:03.267Z,19.08
2016-09-01T06:07:03.258Z,19.18
2016-09-01T06:08:03.228Z,19.15
2016-09-01T06:09:03.218Z,18.97
2016-09-01T06:10:03.211Z,18.99
2016-09-01T06:11:03.316Z,19.19
2016-09-01T06:12:02.465Z,19.26
2016-09-01T06:13:03.165Z,19.3
2016-09-01T06:14:03.157Z,19.02
2016-09-01T06:15:03.321Z,18.92
2016-09-01T06:16:03.149Z,19.07
2016-09-01T06:17:03.107Z,19.21
2016-09-01T06:18:03.104Z,19.31
2016-09-01T06:19:03.086Z,19.37
2016-09-01T06:20:03.092Z,19.38
2016-09-01T06:21:03.070Z,19.55
2016-09-01T06:22:02.365Z,19.62
2016-09-01T06:23:03.046Z,19.55
2016-09-01T06:24:03.017Z,19.62
2016-09-01T06:25:03.016Z,19.7
2016-09-01T06:26:03.000Z,19.77
2016-09-01T06:27:02.994Z,19.85
2016-09-01T06:28:02.272Z,19.98
2016-09-01T06:29:02.960Z,20.06
2016-09-01T06:30:03.652Z,19.76
2016-09-01T06:31:02.936Z,19.52
2016-09-01T06:32:02.221Z,19.51
2016-09-01T06:33:02.911Z,19.76
2016-09-01T06:34:02.918Z,19.95
2016-09-01T06:35:02.178Z,20.06
2016-09-01T06:36:02.161Z,20.25
2016-09-01T06:37:02.869Z,20.33
2016-09-01T06:38:02.138Z,20.28
2016-09-01T06:39:02.115Z,20.31
2016-09-01T06:40:03.072Z,20.35
2016-09-01T06:41:02.814Z,20.43
2016-09-01T06:42:02.801Z,20.36
2016-09-01T06:43:02.796Z,20.33
2016-09-01T06:44:02.786Z,20.29
2016-09-01T06:45:02.066Z,20.43
2016-09-01T06:46:01.314Z,20.33
2016-09-01T06:47:02.734Z,20.47
2016-09-01T06:48:01.300Z,20.44
2016-09-01T06:49:02.720Z,20.47
2016-09-01T06:50:02.002Z,20.52
2016-09-01T06:51:02.709Z,20.69
2016-09-01T06:52:02.678Z,20.74
2016-09-01T06:53:01.951Z,20.6
2016-09-01T06:54:01.951Z,20.49
2016-09-01T06:55:02.846Z,20.76
2016-09-01T06:56:02.648Z,20.81
2016-09-01T06:57:01.251Z,20.85
2016-09-01T06:58:02.607Z,21.95
2016-09-01T06:59:01.270Z,22.94
2016-09-01T07:00:01.891Z,22.62
2016-09-01T07:01:02.586Z,23.78
2016-09-01T07:02:02.602Z,24.8
2016-09-01T07:03:01.855Z,25.42
2016-09-01T07:04:02.572Z,25.11
2016-09-01T07:05:01.847Z,26.23
2016-09-01T07:06:02.545Z,27.3
2016-09-01T07:07:02.548Z,28.27
2016-09-01T07:08:01.817Z,28.42
2016-09-01T07:09:01.856Z,28.61
2016-09-01T07:10:01.787Z,28.53
2016-09-01T07:11:02.508Z,26.79
2016-09-01T07:12:01.791Z,27.71
2016-09-01T07:13:02.481Z,27.38
2016-09-01T07:14:01.053Z,26.78
2016-09-01T07:15:02.476Z,25.94
2016-09-01T07:16:02.470Z,26.47
2016-09-01T07:17:01.741Z,26.7
2016-09-01T07:18:01.732Z,26.45
2016-09-01T07:19:01.730Z,26.26
2016-09-01T07:20:02.443Z,26.2
2016-09-01T07:21:01.705Z,26.34
2016-09-01T07:22:02.426Z,26.37
2016-09-01T07:23:02.473Z,25.95
2016-09-01T07:24:01.880Z,25.77
2016-09-01T07:25:02.412Z,25.92
2016-09-01T07:26:01.672Z,25.77
2016-09-01T07:27:01.667Z,25.37
2016-09-01T07:28:02.377Z,25
2016-09-01T07:29:02.368Z,24.77
2016-09-01T07:30:02.401Z,23.92
2016-09-01T07:31:00.911Z,23.84
2016-09-01T07:32:02.343Z,23.85
2016-09-01T07:33:02.330Z,23.92
2016-09-01T07:34:01.609Z,23.24
2016-09-01T07:35:03.488Z,22.89
2016-09-01T07:36:02.308Z,22.92
2016-09-01T07:37:01.579Z,22.98
2016-09-01T07:38:01.580Z,23.19
2016-09-01T07:39:01.560Z,22.57
2016-09-01T07:40:02.345Z,22.84
2016-09-01T07:41:02.271Z,22.91
2016-09-01T07:42:02.275Z,22.88
2016-09-01T07:43:02.265Z,23.28
2016-09-01T07:44:02.251Z,23.02
2016-09-01T07:45:02.247Z,23.55
2016-09-01T07:46:00.822Z,23.77
2016-09-01T07:47:01.512Z,24.03
2016-09-01T07:48:02.246Z,24.74
2016-09-01T07:49:01.589Z,24.84
2016-09-01T07:50:01.506Z,25.08
2016-09-01T07:51:02.208Z,25.36
2016-09-01T07:52:01.569Z,25.36
2016-09-01T07:53:01.497Z,25.64
2016-09-01T07:54:02.201Z,25.79
2016-09-01T07:55:01.479Z,26.23
2016-09-01T07:56:02.208Z,26.26
2016-09-01T07:57:01.477Z,25.69
2016-09-01T07:58:02.195Z,25.95
2016-09-01T07:59:01.545Z,26.37
2016-09-01T08:00:01.465Z,26.84
2016-09-01T08:01:02.176Z,27.34
2016-09-01T08:02:02.181Z,27.33
2016-09-01T08:03:01.550Z,26.98
2016-09-01T08:04:00.731Z,27.74
2016-09-01T08:05:00.770Z,28.52
2016-09-01T08:06:01.460Z,29.22
2016-09-01T08:07:02.161Z,29.84
2016-09-01T08:08:02.156Z,29.54
2016-09-01T08:09:01.431Z,28.93
2016-09-01T08:10:04.140Z,28.82
2016-09-01T08:11:00.806Z,27.88
2016-09-01T08:12:01.437Z,27.03
2016-09-01T08:13:02.148Z,27.4
2016-09-01T08:14:02.138Z,28
2016-09-01T08:15:02.150Z,28.34
2016-09-01T08:16:02.151Z,29.03
2016-09-01T08:17:02.140Z,29.77
2016-09-01T08:18:00.772Z,30.31
2016-09-01T08:19:02.160Z,30.66
2016-09-01T08:20:02.152Z,30.68
2016-09-01T08:21:02.144Z,30.82
2016-09-01T08:22:01.429Z,30.61
2016-09-01T08:23:02.162Z,31.27
2016-09-01T08:24:02.121Z,31.44
2016-09-01T08:25:01.424Z,31.47
2016-09-01T08:26:01.450Z,31.66
2016-09-01T08:27:01.414Z,30.81
2016-09-01T08:28:01.413Z,30.25
2016-09-01T08:29:01.419Z,30.39
2016-09-01T08:30:01.422Z,29.89
2016-09-01T08:31:01.428Z,30.23
2016-09-01T08:32:01.424Z,30.11
2016-09-01T08:33:02.157Z,30.25
2016-09-01T08:34:01.427Z,30.49
2016-09-01T08:35:02.136Z,30.32
2016-09-01T08:36:01.426Z,30.56
2016-09-01T08:37:00.719Z,29.61
2016-09-01T08:38:01.465Z,29.35
2016-09-01T08:39:02.148Z,28.64
2016-09-01T08:40:02.207Z,28.74
2016-09-01T08:41:02.147Z,28.9
2016-09-01T08:42:01.433Z,29.22
2016-09-01T08:43:02.141Z,29.55
2016-09-01T08:44:01.490Z,29.57
2016-09-01T08:45:02.151Z,29.37
2016-09-01T08:46:01.430Z,29.65
2016-09-01T08:47:01.434Z,29.39
2016-09-01T08:48:02.149Z,29.12
2016-09-01T08:49:01.422Z,29.07
2016-09-01T08:50:02.151Z,28.95
2016-09-01T08:51:01.446Z,29.36
2016-09-01T08:52:01.456Z,29.64
2016-09-01T08:53:02.140Z,30.29
2016-09-01T08:54:02.153Z,30.38
2016-09-01T08:55:01.460Z,29.66
2016-09-01T08:56:01.422Z,29.79
2016-09-01T08:57:02.133Z,29.59
2016-09-01T08:58:00.699Z,29.24
2016-09-01T08:59:02.148Z,29.02
2016-09-01T09:00:00.706Z,28.52
2016-09-01T09:01:01.426Z,28.71
2016-09-01T09:02:01.417Z,29.36
2016-09-01T09:03:02.196Z,29.49
2016-09-01T09:04:01.421Z,29.35
2016-09-01T09:05:02.187Z,29.2
2016-09-01T09:06:02.147Z,28.19
2016-09-01T09:07:02.166Z,28.56
2016-09-01T09:08:02.144Z,29.21
2016-09-01T09:09:01.531Z,29.09
2016-09-01T09:10:01.449Z,29.55
2016-09-01T09:11:02.152Z,29.95
2016-09-01T09:12:01.437Z,30.23
2016-09-01T09:13:01.424Z,30.63
2016-09-01T09:14:02.150Z,30.74
2016-09-01T09:15:01.507Z,31.22
2016-09-01T09:16:00.728Z,31.08
2016-09-01T09:17:02.176Z,30.85
2016-09-01T09:18:02.597Z,30.85
2016-09-01T09:19:01.439Z,30.74
2016-09-01T09:20:01.433Z,30.76
2016-09-01T09:21:02.175Z,30.38
2016-09-01T09:22:02.148Z,30.82
2016-09-01T09:23:02.148Z,30.83
2016-09-01T09:24:01.592Z,30.68
2016-09-01T09:25:01.517Z,29.74
2016-09-01T09:26:01.463Z,28.9
2016-09-01T09:27:02.156Z,28.7
2016-09-01T09:28:02.167Z,28.86
2016-09-01T09:29:01.458Z,29.55
2016-09-01T09:30:03.020Z,29.2
2016-09-01T09:31:02.172Z,29.84
2016-09-01T09:32:02.160Z,30.03
2016-09-01T09:33:02.177Z,30.43
2016-09-01T09:34:00.980Z,30.54
2016-09-01T09:35:02.176Z,30.45
2016-09-01T09:36:01.526Z,30.21
2016-09-01T09:37:02.174Z,29.59
2016-09-01T09:38:01.464Z,29.59
2016-09-01T09:39:02.191Z,29.99
2016-09-01T09:40:01.470Z,30.49
2016-09-01T09:41:02.167Z,30.51
2016-09-01T09:42:01.468Z,31.05
2016-09-01T09:43:02.199Z,30.85
2016-09-01T09:44:02.488Z,30.46
2016-09-01T09:45:02.186Z,30.88
2016-09-01T09:46:01.460Z,31.33
2016-09-01T09:47:01.472Z,31.37
2016-09-01T09:48:02.186Z,31.74
2016-09-01T09:49:02.184Z,31.71
2016-09-01T09:50:02.179Z,30.63
2016-09-01T09:51:02.188Z,30.95
2016-09-01T09:52:01.476Z,31.37
2016-09-01T09:53:02.297Z,30.82
2016-09-01T09:54:02.221Z,30.21
2016-09-01T09:55:01.491Z,30.7
2016-09-01T09:56:01.473Z,31.03
2016-09-01T09:57:02.180Z,30.86
2016-09-01T09:58:02.250Z,31.34
2016-09-01T09:59:02.185Z,31.56
2016-09-01T10:00:01.478Z,32.07
2016-09-01T10:01:02.180Z,31.66
2016-09-01T10:02:02.169Z,31.48
2016-09-01T10:03:02.189Z,31.38
2016-09-01T10:04:01.480Z,31.14
2016-09-01T10:05:02.205Z,30.4
2016-09-01T10:06:02.186Z,30.54
2016-09-01T10:07:01.464Z,31.3
2016-09-01T10:08:02.183Z,31.64
2016-09-01T10:09:02.201Z,31.95
2016-09-01T10:10:01.459Z,31.89
2016-09-01T10:11:02.175Z,31.97
2016-09-01T10:12:02.192Z,31.49
2016-09-01T10:13:01.651Z,31.47
2016-09-01T10:14:02.207Z,31.85
2016-09-01T10:15:01.460Z,30.33
2016-09-01T10:16:02.209Z,30.39
2016-09-01T10:17:01.468Z,31.01
2016-09-01T10:18:00.779Z,31.1
2016-09-01T10:19:02.156Z,30.32
2016-09-01T10:20:02.169Z,29.91
2016-09-01T10:21:02.173Z,30.51
2016-09-01T10:22:01.451Z,30.93
2016-09-01T10:23:02.157Z,31.32
2016-09-01T10:24:02.145Z,31.54
2016-09-01T10:25:02.171Z,31.76
2016-09-01T10:26:01.428Z,31.92
2016-09-01T10:27:01.431Z,32.36
2016-09-01T10:28:02.146Z,32.5
2016-09-01T10:29:02.140Z,32.75
2016-09-01T10:30:00.698Z,32.58
2016-09-01T10:31:01.420Z,32.43
2016-09-01T10:32:00.690Z,32.04
2016-09-01T10:33:01.430Z,30.98
2016-09-01T10:34:02.123Z,30.93
2016-09-01T10:35:02.140Z,30.39
2016-09-01T10:36:02.151Z,30.92
2016-09-01T10:37:01.411Z,31.37
2016-09-01T10:38:02.100Z,31.75
2016-09-01T10:39:02.104Z,32.13
2016-09-01T10:40:01.384Z,32.38
2016-09-01T10:41:02.096Z,32.75
2016-09-01T10:42:02.097Z,33.06
2016-09-01T10:43:02.094Z,33.13
2016-09-01T10:44:01.379Z,33.36
2016-09-01T10:45:02.081Z,33.52
2016-09-01T10:46:02.074Z,33.07
2016-09-01T10:47:02.076Z,32.84
2016-09-01T10:48:01.364Z,32.34
2016-09-01T10:49:02.129Z,31.87
2016-09-01T10:50:02.206Z,31.51
2016-09-01T10:51:02.112Z,31.63
2016-09-01T10:52:02.068Z,31.69
2016-09-01T10:53:02.067Z,31.95
2016-09-01T10:54:02.059Z,32.17
2016-09-01T10:55:01.354Z,32.43
2016-09-01T10:56:01.324Z,32.2
2016-09-01T10:57:01.322Z,31.67
2016-09-01T10:58:02.063Z,31
2016-09-01T10:59:02.034Z,30.98
2016-09-01T11:00:01.311Z,31.01
2016-09-01T11:01:01.311Z,31.14
2016-09-01T11:02:02.034Z,31.22
2016-09-01T11:03:01.310Z,31.27
2016-09-01T11:04:02.018Z,31.6
2016-09-01T11:05:01.293Z,31.64
2016-09-01T11:06:01.288Z,31.22
2016-09-01T11:07:02.010Z,30.63
2016-09-01T11:08:01.285Z,31.04
2016-09-01T11:09:01.277Z,30.13
2016-09-01T11:10:01.981Z,30.08
2016-09-01T11:11:01.269Z,30.63
2016-09-01T11:12:01.263Z,31.01
2016-09-01T11:13:01.993Z,31.56
2016-09-01T11:14:01.982Z,31.48
2016-09-01T11:15:00.531Z,31.52
2016-09-01T11:16:00.537Z,31.63
2016-09-01T11:17:00.714Z,30.73
2016-09-01T11:18:01.234Z,30.48
2016-09-01T11:19:01.940Z,30.71
2016-09-01T11:20:02.520Z,31.48
2016-09-01T11:21:01.217Z,31.22
2016-09-01T11:22:01.298Z,31.64
2016-09-01T11:23:00.517Z,31.9
2016-09-01T11:24:01.973Z,30.85
2016-09-01T11:25:00.498Z,30.81
2016-09-01T11:26:01.949Z,30.92
2016-09-01T11:27:01.920Z,30.7
2016-09-01T11:28:01.901Z,30.63
2016-09-01T11:29:01.185Z,30.16
2016-09-01T11:30:00.483Z,29.49
2016-09-01T11:31:01.181Z,30.1
2016-09-01T11:32:01.944Z,30.58
2016-09-01T11:33:01.887Z,30.33
2016-09-01T11:34:01.175Z,31.08
2016-09-01T11:35:01.163Z,30.78
2016-09-01T11:36:01.167Z,30.61
2016-09-01T11:37:01.152Z,30.2
2016-09-01T11:38:01.159Z,30.81
2016-09-01T11:39:01.871Z,31.41
2016-09-01T11:40:01.140Z,31.94
2016-09-01T11:41:01.140Z,32.35
2016-09-01T11:42:01.138Z,30.82
2016-09-01T11:43:01.869Z,31.3
2016-09-01T11:44:01.123Z,31.08
2016-09-01T11:45:01.120Z,30.81
2016-09-01T11:46:01.124Z,31.23
2016-09-01T11:47:01.228Z,31.08
2016-09-01T11:48:01.815Z,30.89
2016-09-01T11:49:00.387Z,30.76
2016-09-01T11:50:01.807Z,31.37
2016-09-01T11:51:00.379Z,31.92
2016-09-01T11:52:01.217Z,31.69
2016-09-01T11:53:01.084Z,31.64
2016-09-01T11:54:01.791Z,31.52
2016-09-01T11:55:01.079Z,31.04
2016-09-01T11:56:01.789Z,30.66
2016-09-01T11:57:01.775Z,30.64
2016-09-01T11:58:01.280Z,30.4
2016-09-01T11:59:01.781Z,30.4
2016-09-01T12:00:00.495Z,30.23
2016-09-01T12:01:01.826Z,29.86
2016-09-01T12:02:00.320Z,29.77
2016-09-01T12:03:01.957Z,29.77
2016-09-01T12:04:01.023Z,29.89
2016-09-01T12:05:01.750Z,29.76
2016-09-01T12:06:00.314Z,30.29
2016-09-01T12:07:01.736Z,30.23
2016-09-01T12:08:01.907Z,30.54
2016-09-01T12:09:01.755Z,30.25
2016-09-01T12:10:01.013Z,30.17
2016-09-01T12:11:00.992Z,30.05
2016-09-01T12:12:00.983Z,30.02
2016-09-01T12:13:00.987Z,29.96
2016-09-01T12:14:01.702Z,29.46
2016-09-01T12:15:01.805Z,29.47
2016-09-01T12:16:01.030Z,29.22
2016-09-01T12:17:00.559Z,28.82
2016-09-01T12:18:00.957Z,28.9
2016-09-01T12:19:00.959Z,28.15
2016-09-01T12:20:00.230Z,28.21
2016-09-01T12:21:01.655Z,28.13
2016-09-01T12:22:00.949Z,28.25
2016-09-01T12:23:01.681Z,28.28
2016-09-01T12:24:00.460Z,28.4
2016-09-01T12:25:00.926Z,28.16
2016-09-01T12:26:01.636Z,28.21
2016-09-01T12:27:00.903Z,28.28
2016-09-01T12:28:00.919Z,28.46
2016-09-01T12:29:01.615Z,28.52
2016-09-01T12:30:01.718Z,28.87
2016-09-01T12:31:00.178Z,29.05
2016-09-01T12:32:01.631Z,29.37
2016-09-01T12:33:00.885Z,29.81
2016-09-01T12:34:01.583Z,30.08
2016-09-01T12:35:00.936Z,30.13
2016-09-01T12:36:01.116Z,30.61
2016-09-01T12:37:01.562Z,30.56
2016-09-01T12:38:01.560Z,29.81
2016-09-01T12:39:01.558Z,29.39
2016-09-01T12:40:01.548Z,29.59
2016-09-01T12:41:00.816Z,29.65
2016-09-01T12:42:01.584Z,29.98
2016-09-01T12:43:01.531Z,30.33
2016-09-01T12:44:01.518Z,29.8
2016-09-01T12:45:01.525Z,29.62
2016-09-01T12:46:01.578Z,30.1
2016-09-01T12:47:00.796Z,30.1
2016-09-01T12:48:00.078Z,30.14
2016-09-01T12:49:01.510Z,30.05
2016-09-01T12:50:00.788Z,29.74
2016-09-01T12:51:00.801Z,28.95
2016-09-01T12:52:01.539Z,28.95
2016-09-01T12:53:00.832Z,28.95
2016-09-01T12:54:01.467Z,29.07
2016-09-01T12:55:00.748Z,29.18